sensor_id;sensor_type;location;lat;lon;timestamp;temperature;humidity
59469;DHT22;45277;52.768;18.262;2023-03-01T00:01:20;-2.00;99.90
59469;DHT22;45277;52.768;18.262;2023-03-01T00:02:52;-2.10;99.90
59469;DHT22;45277;52.768;18.262;2023-03-01T00:04:23;-2.10;99.90
59469;DHT22;45277;52.768;18.262;2023-03-01T00:05:55;-2.00;99.90
59469;DHT22;45277;52.768;18.262;2023-03-01T00:07:27;-2.10;99.90
59469;DHT22;45277;52.768;18.262;2023-03-01T00:08:58;-2.10;99.90
59469;DHT22;45277;52.768;18.262;2023-03-01T00:10:29;-2.10;99.90
59469;DHT22;45277;52.768;18.262;2023-03-01T00:12:01;-2.10;99.90
59469;DHT22;45277;52.768;18.262;2023-03-01T00:13:34;-2.10;99.90
59469;DHT22;45277;52.768;18.262;2023-03-01T00:15:06;-2.20;99.90
59469;DHT22;45277;52.768;18.262;2023-03-01T00:16:39;-2.20;99.90
59469;DHT22;45277;52.768;18.262;2023-03-01T00:18:11;-2.20;99.90
59469;DHT22;45277;52.768;18.262;2023-03-01T00:19:42;-2.20;99.90
59469;DHT22;45277;52.768;18.262;2023-03-01T00:21:14;-2.20;99.90
59469;DHT22;45277;52.768;18.262;2023-03-01T00:22:45;-2.20;99.90
59469;DHT22;45277;52.768;18.262;2023-03-01T00:24:16;-2.20;99.90
59469;DHT22;45277;52.768;18.262;2023-03-01T00:25:48;-2.20;99.90
59469;DHT22;45277;52.768;18.262;2023-03-01T00:27:20;-2.30;99.90
59469;DHT22;45277;52.768;18.262;2023-03-01T00:28:52;-2.40;99.90
59469;DHT22;45277;52.768;18.262;2023-03-01T00:30:23;-2.40;99.90
59469;DHT22;45277;52.768;18.262;2023-03-01T00:31:55;-2.30;99.90
59469;DHT22;45277;52.768;18.262;2023-03-01T00:33:26;-2.40;99.90
59469;DHT22;45277;52.768;18.262;2023-03-01T00:34:57;-2.40;99.90
59469;DHT22;45277;52.768;18.262;2023-03-01T00:36:31;-2.40;99.90
59469;DHT22;45277;52.768;18.262;2023-03-01T00:38:03;-2.40;99.90
59469;DHT22;45277;52.768;18.262;2023-03-01T00:39:35;-2.30;99.90
59469;DHT22;45277;52.768;18.262;2023-03-01T00:41:09;-2.30;99.90
59469;DHT22;45277;52.768;18.262;2023-03-01T00:42:40;-2.30;99.90
59469;DHT22;45277;52.768;18.262;2023-03-01T00:44:12;-2.30;99.90
59469;DHT22;45277;52.768;18.262;2023-03-01T00:45:43;-2.40;99.90
59469;DHT22;45277;52.768;18.262;2023-03-01T00:47:15;-2.20;99.90
59469;DHT22;45277;52.768;18.262;2023-03-01T00:48:47;-2.20;99.90
59469;DHT22;45277;52.768;18.262;2023-03-01T00:50:19;-2.30;99.90
59469;DHT22;45277;52.768;18.262;2023-03-01T00:51:50;-2.20;99.90
59469;DHT22;45277;52.768;18.262;2023-03-01T00:53:22;-2.10;99.90
59469;DHT22;45277;52.768;18.262;2023-03-01T00:54:53;-2.20;99.90
59469;DHT22;45277;52.768;18.262;2023-03-01T00:56:25;-2.20;99.90
59469;DHT22;45277;52.768;18.262;2023-03-01T00:57:57;-2.20;99.90
59469;DHT22;45277;52.768;18.262;2023-03-01T00:59:28;-2.30;99.90
59469;DHT22;45277;52.768;18.262;2023-03-01T01:00:59;-2.40;99.90
59469;DHT22;45277;52.768;18.262;2023-03-01T01:02:34;-2.50;99.90
59469;DHT22;45277;52.768;18.262;2023-03-01T01:04:09;-2.50;99.90
59469;DHT22;45277;52.768;18.262;2023-03-01T01:05:40;-2.50;99.90
59469;DHT22;45277;52.768;18.262;2023-03-01T01:07:13;-2.50;99.90
59469;DHT22;45277;52.768;18.262;2023-03-01T01:08:44;-2.60;99.90
59469;DHT22;45277;52.768;18.262;2023-03-01T01:10:16;-2.60;99.90
59469;DHT22;45277;52.768;18.262;2023-03-01T01:11:50;-2.60;99.90
59469;DHT22;45277;52.768;18.262;2023-03-01T01:13:22;-2.70;99.90
59469;DHT22;45277;52.768;18.262;2023-03-01T01:14:53;-2.70;99.90
59469;DHT22;45277;52.768;18.262;2023-03-01T01:16:26;-2.80;99.90
59469;DHT22;45277;52.768;18.262;2023-03-01T01:17:58;-2.80;99.90
59469;DHT22;45277;52.768;18.262;2023-03-01T01:19:29;-2.80;99.90
59469;DHT22;45277;52.768;18.262;2023-03-01T01:21:10;-2.90;99.90
59469;DHT22;45277;52.768;18.262;2023-03-01T01:22:41;-2.90;99.90
59469;DHT22;45277;52.768;18.262;2023-03-01T01:24:13;-3.00;99.90
59469;DHT22;45277;52.768;18.262;2023-03-01T01:25:45;-3.00;99.90
59469;DHT22;45277;52.768;18.262;2023-03-01T01:27:16;-3.00;99.90
59469;DHT22;45277;52.768;18.262;2023-03-01T01:28:48;-3.00;99.90
59469;DHT22;45277;52.768;18.262;2023-03-01T01:30:20;-3.00;99.90
59469;DHT22;45277;52.768;18.262;2023-03-01T01:31:51;-3.10;99.90
59469;DHT22;45277;52.768;18.262;2023-03-01T01:33:22;-3.10;99.90
59469;DHT22;45277;52.768;18.262;2023-03-01T01:34:54;-3.20;99.90
59469;DHT22;45277;52.768;18.262;2023-03-01T01:36:26;-3.20;99.90
59469;DHT22;45277;52.768;18.262;2023-03-01T01:37:57;-3.20;99.90
59469;DHT22;45277;52.768;18.262;2023-03-01T01:39:29;-3.30;99.90
59469;DHT22;45277;52.768;18.262;2023-03-01T01:41:00;-3.30;99.90
59469;DHT22;45277;52.768;18.262;2023-03-01T01:42:32;-3.30;99.90
59469;DHT22;45277;52.768;18.262;2023-03-01T01:44:19;-3.30;99.90
59469;DHT22;45277;52.768;18.262;2023-03-01T01:45:55;-3.30;99.90
59469;DHT22;45277;52.768;18.262;2023-03-01T01:47:28;-3.30;99.90
59469;DHT22;45277;52.768;18.262;2023-03-01T01:49:24;-3.20;99.90
59469;DHT22;45277;52.768;18.262;2023-03-01T01:51:01;-3.20;99.90
59469;DHT22;45277;52.768;18.262;2023-03-01T01:52:35;-3.20;99.90
59469;DHT22;45277;52.768;18.262;2023-03-01T01:54:16;-3.20;99.90
59469;DHT22;45277;52.768;18.262;2023-03-01T01:55:53;-3.20;99.90
59469;DHT22;45277;52.768;18.262;2023-03-01T01:57:33;-3.30;99.90
59469;DHT22;45277;52.768;18.262;2023-03-01T01:59:06;-3.30;99.90
59469;DHT22;45277;52.768;18.262;2023-03-01T02:00:38;-3.30;99.90
59469;DHT22;45277;52.768;18.262;2023-03-01T02:02:10;-3.30;99.90
59469;DHT22;45277;52.768;18.262;2023-03-01T02:03:44;-3.30;99.90
59469;DHT22;45277;52.768;18.262;2023-03-01T02:07:15;-3.30;99.90
59469;DHT22;45277;52.768;18.262;2023-03-01T02:08:49;-3.20;99.90
59469;DHT22;45277;52.768;18.262;2023-03-01T02:10:22;-3.10;99.90
59469;DHT22;45277;52.768;18.262;2023-03-01T02:11:54;-3.10;99.90
59469;DHT22;45277;52.768;18.262;2023-03-01T02:13:27;-3.10;99.90
59469;DHT22;45277;52.768;18.262;2023-03-01T02:14:58;-3.10;99.90
59469;DHT22;45277;52.768;18.262;2023-03-01T02:16:30;-3.00;99.90
59469;DHT22;45277;52.768;18.262;2023-03-01T02:18:03;-3.10;99.90
59469;DHT22;45277;52.768;18.262;2023-03-01T02:19:40;-3.00;99.90
59469;DHT22;45277;52.768;18.262;2023-03-01T02:21:44;-3.00;99.90
59469;DHT22;45277;52.768;18.262;2023-03-01T02:23:20;-3.00;99.90
59469;DHT22;45277;52.768;18.262;2023-03-01T02:25:00;-2.90;99.90
59469;DHT22;45277;52.768;18.262;2023-03-01T02:26:46;-3.00;99.90
59469;DHT22;45277;52.768;18.262;2023-03-01T02:28:31;-3.00;99.90
59469;DHT22;45277;52.768;18.262;2023-03-01T02:30:04;-3.00;99.90
59469;DHT22;45277;52.768;18.262;2023-03-01T02:31:36;-3.00;99.90
59469;DHT22;45277;52.768;18.262;2023-03-01T02:33:13;-3.10;99.90
59469;DHT22;45277;52.768;18.262;2023-03-01T02:34:44;-3.10;99.90
59469;DHT22;45277;52.768;18.262;2023-03-01T02:36:24;-3.10;99.90
59469;DHT22;45277;52.768;18.262;2023-03-01T02:37:56;-3.20;99.90
59469;DHT22;45277;52.768;18.262;2023-03-01T02:39:34;-3.00;99.90
59469;DHT22;45277;52.768;18.262;2023-03-01T02:41:09;-3.10;99.90
59469;DHT22;45277;52.768;18.262;2023-03-01T02:42:56;-3.00;99.90
59469;DHT22;45277;52.768;18.262;2023-03-01T02:44:27;-3.00;99.90
59469;DHT22;45277;52.768;18.262;2023-03-01T02:46:06;-2.90;99.90
59469;DHT22;45277;52.768;18.262;2023-03-01T02:47:38;-2.90;99.90
59469;DHT22;45277;52.768;18.262;2023-03-01T02:49:27;-2.90;99.90
59469;DHT22;45277;52.768;18.262;2023-03-01T02:51:07;-2.80;99.90
59469;DHT22;45277;52.768;18.262;2023-03-01T02:52:57;-2.90;99.90
59469;DHT22;45277;52.768;18.262;2023-03-01T02:56:30;-3.00;99.90
59469;DHT22;45277;52.768;18.262;2023-03-01T02:58:03;-3.00;99.90
59469;DHT22;45277;52.768;18.262;2023-03-01T02:59:35;-3.10;99.90
59469;DHT22;45277;52.768;18.262;2023-03-01T03:01:10;-3.20;99.90
59469;DHT22;45277;52.768;18.262;2023-03-01T03:02:42;-3.20;99.90
59469;DHT22;45277;52.768;18.262;2023-03-01T03:04:16;-3.30;99.90
59469;DHT22;45277;52.768;18.262;2023-03-01T03:05:48;-3.30;99.90
59469;DHT22;45277;52.768;18.262;2023-03-01T03:07:20;-3.30;99.90
59469;DHT22;45277;52.768;18.262;2023-03-01T03:08:51;-3.30;99.90
59469;DHT22;45277;52.768;18.262;2023-03-01T03:10:28;-3.10;99.90
59469;DHT22;45277;52.768;18.262;2023-03-01T03:12:00;-3.10;99.90
59469;DHT22;45277;52.768;18.262;2023-03-01T03:13:31;-3.00;99.90
59469;DHT22;45277;52.768;18.262;2023-03-01T03:15:04;-3.00;99.90
59469;DHT22;45277;52.768;18.262;2023-03-01T03:16:48;-2.90;99.90
59469;DHT22;45277;52.768;18.262;2023-03-01T03:18:19;-2.90;99.90
59469;DHT22;45277;52.768;18.262;2023-03-01T03:19:51;-2.90;99.90
59469;DHT22;45277;52.768;18.262;2023-03-01T03:21:22;-2.90;99.90
59469;DHT22;45277;52.768;18.262;2023-03-01T03:22:56;-2.90;99.90
59469;DHT22;45277;52.768;18.262;2023-03-01T03:24:29;-3.00;99.90
59469;DHT22;45277;52.768;18.262;2023-03-01T03:26:09;-3.00;99.90
59469;DHT22;45277;52.768;18.262;2023-03-01T03:27:47;-3.10;99.90
59469;DHT22;45277;52.768;18.262;2023-03-01T03:29:19;-3.10;99.90
59469;DHT22;45277;52.768;18.262;2023-03-01T03:30:51;-3.20;99.90
59469;DHT22;45277;52.768;18.262;2023-03-01T03:32:22;-3.10;99.90
59469;DHT22;45277;52.768;18.262;2023-03-01T03:33:54;-3.10;99.90
59469;DHT22;45277;52.768;18.262;2023-03-01T03:35:31;-3.10;99.90
59469;DHT22;45277;52.768;18.262;2023-03-01T03:37:02;-3.10;99.90
59469;DHT22;45277;52.768;18.262;2023-03-01T03:38:34;-3.10;99.90
59469;DHT22;45277;52.768;18.262;2023-03-01T03:40:06;-3.10;99.90
59469;DHT22;45277;52.768;18.262;2023-03-01T03:41:46;-3.10;99.90
59469;DHT22;45277;52.768;18.262;2023-03-01T03:43:19;-3.10;99.90
59469;DHT22;45277;52.768;18.262;2023-03-01T03:44:51;-3.20;99.90
59469;DHT22;45277;52.768;18.262;2023-03-01T03:46:22;-3.10;99.90
59469;DHT22;45277;52.768;18.262;2023-03-01T03:47:54;-3.20;99.90
59469;DHT22;45277;52.768;18.262;2023-03-01T03:49:25;-3.20;99.90
59469;DHT22;45277;52.768;18.262;2023-03-01T03:50:57;-3.20;99.90
59469;DHT22;45277;52.768;18.262;2023-03-01T03:52:28;-3.20;99.90
59469;DHT22;45277;52.768;18.262;2023-03-01T03:54:00;-3.20;99.90
59469;DHT22;45277;52.768;18.262;2023-03-01T03:55:32;-3.30;99.90
59469;DHT22;45277;52.768;18.262;2023-03-01T03:57:04;-3.30;99.90
59469;DHT22;45277;52.768;18.262;2023-03-01T03:58:36;-3.20;99.90
59469;DHT22;45277;52.768;18.262;2023-03-01T04:00:11;-3.10;99.90
59469;DHT22;45277;52.768;18.262;2023-03-01T04:01:45;-3.10;99.90
59469;DHT22;45277;52.768;18.262;2023-03-01T04:03:18;-3.10;99.90
59469;DHT22;45277;52.768;18.262;2023-03-01T04:04:50;-3.00;99.90
59469;DHT22;45277;52.768;18.262;2023-03-01T04:06:22;-3.00;99.90
59469;DHT22;45277;52.768;18.262;2023-03-01T04:07:54;-2.90;99.90
59469;DHT22;45277;52.768;18.262;2023-03-01T04:09:37;-2.80;99.90
59469;DHT22;45277;52.768;18.262;2023-03-01T04:11:09;-2.80;99.90
59469;DHT22;45277;52.768;18.262;2023-03-01T04:12:59;-2.80;99.90
59469;DHT22;45277;52.768;18.262;2023-03-01T04:14:30;-2.80;99.90
59469;DHT22;45277;52.768;18.262;2023-03-01T04:16:02;-2.80;99.90
59469;DHT22;45277;52.768;18.262;2023-03-01T04:17:33;-2.80;99.90
59469;DHT22;45277;52.768;18.262;2023-03-01T04:19:05;-2.80;99.90
59469;DHT22;45277;52.768;18.262;2023-03-01T04:20:37;-2.80;99.90
59469;DHT22;45277;52.768;18.262;2023-03-01T04:22:09;-2.80;99.90
59469;DHT22;45277;52.768;18.262;2023-03-01T04:23:42;-2.80;99.90
59469;DHT22;45277;52.768;18.262;2023-03-01T04:25:13;-2.80;99.90
59469;DHT22;45277;52.768;18.262;2023-03-01T04:26:45;-2.80;99.90
59469;DHT22;45277;52.768;18.262;2023-03-01T04:28:17;-2.80;99.90
59469;DHT22;45277;52.768;18.262;2023-03-01T04:29:48;-2.80;99.90
59469;DHT22;45277;52.768;18.262;2023-03-01T04:31:20;-2.70;99.90
59469;DHT22;45277;52.768;18.262;2023-03-01T04:32:52;-2.70;99.90
59469;DHT22;45277;52.768;18.262;2023-03-01T04:34:23;-2.70;99.90
59469;DHT22;45277;52.768;18.262;2023-03-01T04:35:55;-2.70;99.90
59469;DHT22;45277;52.768;18.262;2023-03-01T04:37:26;-2.70;99.90
59469;DHT22;45277;52.768;18.262;2023-03-01T04:38:57;-2.70;99.90
59469;DHT22;45277;52.768;18.262;2023-03-01T04:40:29;-2.70;99.90
59469;DHT22;45277;52.768;18.262;2023-03-01T04:42:00;-2.70;99.90
59469;DHT22;45277;52.768;18.262;2023-03-01T04:43:32;-2.80;99.90
59469;DHT22;45277;52.768;18.262;2023-03-01T04:45:05;-2.80;99.90
59469;DHT22;45277;52.768;18.262;2023-03-01T04:46:43;-2.80;99.90
59469;DHT22;45277;52.768;18.262;2023-03-01T04:48:15;-2.80;99.90
59469;DHT22;45277;52.768;18.262;2023-03-01T04:49:46;-2.90;99.90
59469;DHT22;45277;52.768;18.262;2023-03-01T04:51:18;-2.90;99.90
59469;DHT22;45277;52.768;18.262;2023-03-01T04:52:49;-3.00;99.90
59469;DHT22;45277;52.768;18.262;2023-03-01T04:54:21;-3.10;99.90
59469;DHT22;45277;52.768;18.262;2023-03-01T04:55:54;-3.10;99.90
59469;DHT22;45277;52.768;18.262;2023-03-01T04:57:26;-3.20;99.90
59469;DHT22;45277;52.768;18.262;2023-03-01T04:58:58;-3.30;99.90
59469;DHT22;45277;52.768;18.262;2023-03-01T05:00:29;-3.30;99.90
59469;DHT22;45277;52.768;18.262;2023-03-01T05:02:00;-3.30;99.90
59469;DHT22;45277;52.768;18.262;2023-03-01T05:03:32;-3.30;99.90
59469;DHT22;45277;52.768;18.262;2023-03-01T05:05:04;-3.40;99.90
59469;DHT22;45277;52.768;18.262;2023-03-01T05:06:36;-3.40;99.90
59469;DHT22;45277;52.768;18.262;2023-03-01T05:08:08;-3.40;99.90
59469;DHT22;45277;52.768;18.262;2023-03-01T05:09:40;-3.40;99.90
59469;DHT22;45277;52.768;18.262;2023-03-01T05:11:11;-3.40;99.90
59469;DHT22;45277;52.768;18.262;2023-03-01T05:12:43;-3.40;99.90
59469;DHT22;45277;52.768;18.262;2023-03-01T05:14:14;-3.40;99.90
59469;DHT22;45277;52.768;18.262;2023-03-01T05:16:04;-3.40;99.90
59469;DHT22;45277;52.768;18.262;2023-03-01T05:17:36;-3.40;99.90
59469;DHT22;45277;52.768;18.262;2023-03-01T05:19:08;-3.30;99.90
59469;DHT22;45277;52.768;18.262;2023-03-01T05:20:46;-3.30;99.90
59469;DHT22;45277;52.768;18.262;2023-03-01T05:22:18;-3.20;99.90
59469;DHT22;45277;52.768;18.262;2023-03-01T05:23:50;-3.20;99.90
59469;DHT22;45277;52.768;18.262;2023-03-01T05:25:21;-3.10;99.90
59469;DHT22;45277;52.768;18.262;2023-03-01T05:26:53;-3.10;99.90
59469;DHT22;45277;52.768;18.262;2023-03-01T05:28:26;-3.10;99.90
59469;DHT22;45277;52.768;18.262;2023-03-01T05:29:58;-3.10;99.90
59469;DHT22;45277;52.768;18.262;2023-03-01T05:31:30;-3.10;99.90
59469;DHT22;45277;52.768;18.262;2023-03-01T05:33:02;-3.20;99.90
59469;DHT22;45277;52.768;18.262;2023-03-01T05:34:35;-3.20;99.90
59469;DHT22;45277;52.768;18.262;2023-03-01T05:36:08;-3.20;99.90
59469;DHT22;45277;52.768;18.262;2023-03-01T05:37:45;-3.10;99.90
59469;DHT22;45277;52.768;18.262;2023-03-01T05:39:17;-3.10;99.90
59469;DHT22;45277;52.768;18.262;2023-03-01T05:40:52;-3.00;99.90
59469;DHT22;45277;52.768;18.262;2023-03-01T05:42:23;-2.90;99.90
59469;DHT22;45277;52.768;18.262;2023-03-01T05:43:54;-3.00;99.90
59469;DHT22;45277;52.768;18.262;2023-03-01T05:45:27;-2.90;99.90
59469;DHT22;45277;52.768;18.262;2023-03-01T05:46:58;-3.00;99.90
59469;DHT22;45277;52.768;18.262;2023-03-01T05:48:30;-3.00;99.90
59469;DHT22;45277;52.768;18.262;2023-03-01T05:50:02;-3.00;99.90
59469;DHT22;45277;52.768;18.262;2023-03-01T05:51:34;-3.00;99.90
59469;DHT22;45277;52.768;18.262;2023-03-01T05:53:09;-2.90;99.90
59469;DHT22;45277;52.768;18.262;2023-03-01T05:54:41;-2.90;99.90
59469;DHT22;45277;52.768;18.262;2023-03-01T05:56:12;-2.80;99.90
59469;DHT22;45277;52.768;18.262;2023-03-01T05:57:44;-2.80;99.90
59469;DHT22;45277;52.768;18.262;2023-03-01T05:59:16;-2.70;99.90
59469;DHT22;45277;52.768;18.262;2023-03-01T06:00:49;-2.60;99.90
59469;DHT22;45277;52.768;18.262;2023-03-01T06:02:23;-2.60;99.90
59469;DHT22;45277;52.768;18.262;2023-03-01T06:03:55;-2.60;99.90
59469;DHT22;45277;52.768;18.262;2023-03-01T06:05:28;-2.50;99.90
59469;DHT22;45277;52.768;18.262;2023-03-01T06:06:59;-2.50;99.90
59469;DHT22;45277;52.768;18.262;2023-03-01T06:08:31;-2.50;99.90
59469;DHT22;45277;52.768;18.262;2023-03-01T06:10:04;-2.40;99.90
59469;DHT22;45277;52.768;18.262;2023-03-01T06:11:36;-2.40;99.90
59469;DHT22;45277;52.768;18.262;2023-03-01T06:13:08;-2.40;99.90
59469;DHT22;45277;52.768;18.262;2023-03-01T06:14:40;-2.40;99.90
59469;DHT22;45277;52.768;18.262;2023-03-01T06:16:12;-2.40;99.90
59469;DHT22;45277;52.768;18.262;2023-03-01T06:17:45;-2.30;99.90
59469;DHT22;45277;52.768;18.262;2023-03-01T06:19:17;-2.30;99.90
59469;DHT22;45277;52.768;18.262;2023-03-01T06:20:55;-2.20;99.90
59469;DHT22;45277;52.768;18.262;2023-03-01T06:22:27;-2.20;99.90
59469;DHT22;45277;52.768;18.262;2023-03-01T06:23:58;-2.20;99.90
59469;DHT22;45277;52.768;18.262;2023-03-01T06:25:29;-2.00;99.90
59469;DHT22;45277;52.768;18.262;2023-03-01T06:27:01;-2.00;99.90
59469;DHT22;45277;52.768;18.262;2023-03-01T06:28:33;-1.90;99.90
59469;DHT22;45277;52.768;18.262;2023-03-01T06:30:05;-1.80;99.90
59469;DHT22;45277;52.768;18.262;2023-03-01T06:31:37;-1.70;99.90
59469;DHT22;45277;52.768;18.262;2023-03-01T06:33:08;-1.70;99.90
59469;DHT22;45277;52.768;18.262;2023-03-01T06:34:40;-1.70;99.90
59469;DHT22;45277;52.768;18.262;2023-03-01T06:36:11;-1.70;99.90
59469;DHT22;45277;52.768;18.262;2023-03-01T06:37:43;-1.60;99.90
59469;DHT22;45277;52.768;18.262;2023-03-01T06:39:14;-1.60;99.90
59469;DHT22;45277;52.768;18.262;2023-03-01T06:40:54;-1.60;99.90
59469;DHT22;45277;52.768;18.262;2023-03-01T06:42:27;-1.50;99.90
59469;DHT22;45277;52.768;18.262;2023-03-01T06:43:58;-1.50;99.90
59469;DHT22;45277;52.768;18.262;2023-03-01T06:45:30;-1.40;99.90
59469;DHT22;45277;52.768;18.262;2023-03-01T06:47:02;-1.40;99.90
59469;DHT22;45277;52.768;18.262;2023-03-01T06:48:34;-1.20;99.90
59469;DHT22;45277;52.768;18.262;2023-03-01T06:50:06;-1.10;99.90
59469;DHT22;45277;52.768;18.262;2023-03-01T06:51:38;-1.10;99.90
59469;DHT22;45277;52.768;18.262;2023-03-01T06:53:09;-1.10;99.90
59469;DHT22;45277;52.768;18.262;2023-03-01T06:54:42;-1.00;99.90
59469;DHT22;45277;52.768;18.262;2023-03-01T06:56:21;-0.90;99.90
59469;DHT22;45277;52.768;18.262;2023-03-01T06:57:59;-0.80;99.90
59469;DHT22;45277;52.768;18.262;2023-03-01T06:59:31;-0.80;99.90
59469;DHT22;45277;52.768;18.262;2023-03-01T07:01:09;-0.70;99.90
59469;DHT22;45277;52.768;18.262;2023-03-01T07:02:40;-0.60;99.90
59469;DHT22;45277;52.768;18.262;2023-03-01T07:04:13;-0.60;99.90
59469;DHT22;45277;52.768;18.262;2023-03-01T07:05:44;-0.50;99.90
59469;DHT22;45277;52.768;18.262;2023-03-01T07:07:16;-0.40;99.90
59469;DHT22;45277;52.768;18.262;2023-03-01T07:08:49;-0.30;99.90
59469;DHT22;45277;52.768;18.262;2023-03-01T07:10:20;-0.20;99.90
59469;DHT22;45277;52.768;18.262;2023-03-01T07:11:52;-0.10;99.90
59469;DHT22;45277;52.768;18.262;2023-03-01T07:13:23;-0.10;99.90
59469;DHT22;45277;52.768;18.262;2023-03-01T07:14:55;0.00;99.90
59469;DHT22;45277;52.768;18.262;2023-03-01T07:16:36;0.00;99.90
59469;DHT22;45277;52.768;18.262;2023-03-01T07:18:08;0.20;99.90
59469;DHT22;45277;52.768;18.262;2023-03-01T07:19:40;0.20;99.90
59469;DHT22;45277;52.768;18.262;2023-03-01T07:21:13;0.30;99.90
59469;DHT22;45277;52.768;18.262;2023-03-01T07:22:45;0.30;99.90
59469;DHT22;45277;52.768;18.262;2023-03-01T07:24:16;0.40;99.90
59469;DHT22;45277;52.768;18.262;2023-03-01T07:25:54;0.50;99.90
59469;DHT22;45277;52.768;18.262;2023-03-01T07:27:26;0.50;99.90
59469;DHT22;45277;52.768;18.262;2023-03-01T07:29:00;0.60;99.90
59469;DHT22;45277;52.768;18.262;2023-03-01T07:30:31;0.60;99.90
59469;DHT22;45277;52.768;18.262;2023-03-01T07:32:04;0.60;99.90
59469;DHT22;45277;52.768;18.262;2023-03-01T07:33:36;0.70;99.90
59469;DHT22;45277;52.768;18.262;2023-03-01T07:35:08;0.70;99.90
59469;DHT22;45277;52.768;18.262;2023-03-01T07:36:40;0.80;99.90
59469;DHT22;45277;52.768;18.262;2023-03-01T07:38:13;0.80;99.90
59469;DHT22;45277;52.768;18.262;2023-03-01T07:39:45;0.80;99.90
59469;DHT22;45277;52.768;18.262;2023-03-01T07:41:17;0.90;99.90
59469;DHT22;45277;52.768;18.262;2023-03-01T07:42:48;0.90;99.90
59469;DHT22;45277;52.768;18.262;2023-03-01T07:44:20;0.90;99.90
59469;DHT22;45277;52.768;18.262;2023-03-01T07:45:51;1.00;99.90
59469;DHT22;45277;52.768;18.262;2023-03-01T07:47:23;1.00;99.90
59469;DHT22;45277;52.768;18.262;2023-03-01T07:48:54;1.10;99.90
59469;DHT22;45277;52.768;18.262;2023-03-01T07:50:26;1.10;99.90
59469;DHT22;45277;52.768;18.262;2023-03-01T07:51:58;1.20;99.90
59469;DHT22;45277;52.768;18.262;2023-03-01T07:53:29;1.30;99.90
59469;DHT22;45277;52.768;18.262;2023-03-01T07:55:02;1.40;99.90
59469;DHT22;45277;52.768;18.262;2023-03-01T07:56:34;1.50;99.90
59469;DHT22;45277;52.768;18.262;2023-03-01T07:58:06;1.50;99.90
59469;DHT22;45277;52.768;18.262;2023-03-01T07:59:38;1.60;99.90
59469;DHT22;45277;52.768;18.262;2023-03-01T08:01:11;1.60;99.90
59469;DHT22;45277;52.768;18.262;2023-03-01T08:02:43;1.70;99.90
59469;DHT22;45277;52.768;18.262;2023-03-01T08:04:15;1.70;99.90
59469;DHT22;45277;52.768;18.262;2023-03-01T08:05:46;1.70;99.90
59469;DHT22;45277;52.768;18.262;2023-03-01T08:07:18;1.80;99.90
59469;DHT22;45277;52.768;18.262;2023-03-01T08:08:50;1.90;99.90
59469;DHT22;45277;52.768;18.262;2023-03-01T08:10:21;2.00;99.90
59469;DHT22;45277;52.768;18.262;2023-03-01T08:11:52;2.10;99.90
59469;DHT22;45277;52.768;18.262;2023-03-01T08:13:26;2.10;99.90
59469;DHT22;45277;52.768;18.262;2023-03-01T08:14:57;2.10;99.90
59469;DHT22;45277;52.768;18.262;2023-03-01T08:16:28;2.20;99.90
59469;DHT22;45277;52.768;18.262;2023-03-01T08:18:00;2.30;99.90
59469;DHT22;45277;52.768;18.262;2023-03-01T08:19:31;2.30;99.90
59469;DHT22;45277;52.768;18.262;2023-03-01T08:21:09;2.30;99.90
59469;DHT22;45277;52.768;18.262;2023-03-01T08:22:41;2.30;99.90
59469;DHT22;45277;52.768;18.262;2023-03-01T08:24:12;2.50;99.90
59469;DHT22;45277;52.768;18.262;2023-03-01T08:25:44;2.50;99.90
59469;DHT22;45277;52.768;18.262;2023-03-01T08:27:17;2.60;99.90
59469;DHT22;45277;52.768;18.262;2023-03-01T08:28:49;2.60;99.90
59469;DHT22;45277;52.768;18.262;2023-03-01T08:30:21;2.60;99.90
59469;DHT22;45277;52.768;18.262;2023-03-01T08:31:55;2.70;99.90
59469;DHT22;45277;52.768;18.262;2023-03-01T08:33:26;2.70;99.90
59469;DHT22;45277;52.768;18.262;2023-03-01T08:34:58;2.70;99.90
59469;DHT22;45277;52.768;18.262;2023-03-01T08:36:33;2.80;99.90
59469;DHT22;45277;52.768;18.262;2023-03-01T08:38:05;2.80;99.90
59469;DHT22;45277;52.768;18.262;2023-03-01T08:39:37;2.80;99.90
59469;DHT22;45277;52.768;18.262;2023-03-01T08:41:08;2.90;99.90
59469;DHT22;45277;52.768;18.262;2023-03-01T08:42:41;3.00;99.90
59469;DHT22;45277;52.768;18.262;2023-03-01T08:44:15;3.10;99.90
59469;DHT22;45277;52.768;18.262;2023-03-01T08:45:50;3.10;99.90
59469;DHT22;45277;52.768;18.262;2023-03-01T08:47:22;3.20;99.90
59469;DHT22;45277;52.768;18.262;2023-03-01T08:48:53;3.30;99.90
59469;DHT22;45277;52.768;18.262;2023-03-01T08:50:25;3.30;99.90
59469;DHT22;45277;52.768;18.262;2023-03-01T08:51:57;3.40;99.90
59469;DHT22;45277;52.768;18.262;2023-03-01T08:53:28;3.50;99.90
59469;DHT22;45277;52.768;18.262;2023-03-01T08:55:00;3.60;99.90
59469;DHT22;45277;52.768;18.262;2023-03-01T08:56:33;3.60;99.70
59469;DHT22;45277;52.768;18.262;2023-03-01T08:58:04;3.70;99.90
59469;DHT22;45277;52.768;18.262;2023-03-01T08:59:36;3.70;99.90
59469;DHT22;45277;52.768;18.262;2023-03-01T09:01:09;3.70;99.90
59469;DHT22;45277;52.768;18.262;2023-03-01T09:02:40;3.70;99.90
59469;DHT22;45277;52.768;18.262;2023-03-01T09:04:14;3.70;99.90
59469;DHT22;45277;52.768;18.262;2023-03-01T09:05:45;3.80;99.90
59469;DHT22;45277;52.768;18.262;2023-03-01T09:07:17;3.70;98.80
59469;DHT22;45277;52.768;18.262;2023-03-01T09:08:49;3.80;99.90
59469;DHT22;45277;52.768;18.262;2023-03-01T09:10:21;3.80;99.90
59469;DHT22;45277;52.768;18.262;2023-03-01T09:11:52;3.80;97.80
59469;DHT22;45277;52.768;18.262;2023-03-01T09:13:24;3.90;99.40
59469;DHT22;45277;52.768;18.262;2023-03-01T09:14:55;3.90;99.90
59469;DHT22;45277;52.768;18.262;2023-03-01T09:16:27;4.00;99.90
59469;DHT22;45277;52.768;18.262;2023-03-01T09:18:01;4.10;96.30
59469;DHT22;45277;52.768;18.262;2023-03-01T09:19:32;4.10;97.80
59469;DHT22;45277;52.768;18.262;2023-03-01T09:21:09;4.10;97.70
59469;DHT22;45277;52.768;18.262;2023-03-01T09:22:41;4.10;96.30
59469;DHT22;45277;52.768;18.262;2023-03-01T09:24:14;4.10;97.70
59469;DHT22;45277;52.768;18.262;2023-03-01T09:25:45;4.10;98.20
59469;DHT22;45277;52.768;18.262;2023-03-01T09:27:17;4.10;98.30
59469;DHT22;45277;52.768;18.262;2023-03-01T09:28:55;4.10;98.20
59469;DHT22;45277;52.768;18.262;2023-03-01T09:30:27;4.10;99.90
59469;DHT22;45277;52.768;18.262;2023-03-01T09:31:59;4.20;99.90
59469;DHT22;45277;52.768;18.262;2023-03-01T09:33:31;4.30;99.90
59469;DHT22;45277;52.768;18.262;2023-03-01T09:35:03;4.40;99.10
59469;DHT22;45277;52.768;18.262;2023-03-01T09:36:36;4.40;99.90
59469;DHT22;45277;52.768;18.262;2023-03-01T09:38:07;4.50;99.40
59469;DHT22;45277;52.768;18.262;2023-03-01T09:39:39;4.50;99.90
59469;DHT22;45277;52.768;18.262;2023-03-01T09:45:14;4.80;99.40
59469;DHT22;45277;52.768;18.262;2023-03-01T09:46:51;4.80;99.90
59469;DHT22;45277;52.768;18.262;2023-03-01T09:48:26;5.00;99.60
59469;DHT22;45277;52.768;18.262;2023-03-01T09:50:12;5.10;99.00